Time;durP1;ratioP1;P1;durP2;ratioP2;P2;SDS_P1;SDS_P2;PMS_P1;PMS_P2;Temp;Humidity;BMP_temperature;BMP_pressure;BME280_temperature;BME280_humidity;BME280_pressure;Samples;Min_cycle;Max_cycle;Signal;HPM_P1;HPM_P2
2022/08/08 00:01:37;;;;;;;1.25;0.93;;;17.70;58.90;;;;;;5054718;28;20181;-63
2022/08/08 00:04:10;;;;;;;2.08;1.00;;;17.60;59.00;;;;;;5054139;28;20656;-63
2022/08/08 00:07:14;;;;;;;1.58;0.80;;;17.60;59.40;;;;;;5052547;28;20184;-63
2022/08/08 00:10:05;;;;;;;2.22;0.98;;;17.60;59.50;;;;;;5038557;28;20215;-63
2022/08/08 00:13:02;;;;;;;0.82;0.73;;;17.50;59.70;;;;;;5054501;28;20197;-62
2022/08/08 00:15:35;;;;;;;0.90;0.80;;;17.50;59.80;;;;;;5034100;28;20198;-63
2022/08/08 00:18:05;;;;;;;1.27;1.20;;;17.40;60.00;;;;;;5048354;28;20660;-63
2022/08/08 00:20:39;;;;;;;1.08;1.08;;;17.40;60.40;;;;;;5053865;28;20177;-63
2022/08/08 00:23:24;;;;;;;2.35;1.00;;;17.30;60.40;;;;;;5052760;28;20286;-63
2022/08/08 00:25:54;;;;;;;1.73;0.90;;;17.20;60.50;;;;;;5031423;28;20234;-63
2022/08/08 00:28:33;;;;;;;2.28;0.80;;;17.20;60.80;;;;;;5051040;28;20182;-63
2022/08/08 00:31:00;;;;;;;0.77;0.77;;;17.10;61.20;;;;;;5054089;28;20568;-62
2022/08/08 00:33:31;;;;;;;0.85;0.85;;;17.10;61.20;;;;;;5053699;28;20182;-63
2022/08/08 00:36:13;;;;;;;1.88;1.20;;;17.10;61.20;;;;;;5053755;28;20598;-62
2022/08/08 00:39:01;;;;;;;2.13;1.30;;;17.00;61.30;;;;;;5051121;28;20182;-62
2022/08/08 00:41:32;;;;;;;1.20;1.10;;;17.00;61.60;;;;;;5053883;28;20256;-63
2022/08/08 00:44:13;;;;;;;0.90;0.90;;;17.00;61.70;;;;;;5053458;28;20185;-63
2022/08/08 00:47:16;;;;;;;1.02;0.90;;;16.90;61.80;;;;;;5053607;28;20193;-63
2022/08/08 00:50:00;;;;;;;1.50;1.00;;;16.90;62.00;;;;;;5053439;28;20177;-63
2022/08/08 00:52:54;;;;;;;1.02;1.00;;;16.90;62.50;;;;;;5053740;28;20651;-62
2022/08/08 00:55:42;;;;;;;1.52;1.08;;;16.90;62.60;;;;;;5032363;28;20556;-62
2022/08/08 00:58:55;;;;;;;0.98;0.98;;;16.80;62.60;;;;;;5044306;28;20185;-63
2022/08/08 01:02:09;;;;;;;0.70;0.70;;;16.80;62.60;;;;;;5053375;28;20170;-63
2022/08/08 01:05:13;;;;;;;0.75;0.75;;;16.80;62.40;;;;;;5052953;28;20232;-62
2022/08/08 01:07:55;;;;;;;1.35;0.90;;;16.70;62.60;;;;;;5052053;28;20176;-62
2022/08/08 01:10:42;;;;;;;1.33;1.00;;;16.70;62.90;;;;;;5037520;28;20674;-62
2022/08/08 01:13:29;;;;;;;0.80;0.80;;;16.60;62.70;;;;;;5052514;28;20192;-62
2022/08/08 01:16:37;;;;;;;1.17;1.08;;;16.60;62.90;;;;;;5052685;28;20189;-63
2022/08/08 01:19:42;;;;;;;3.67;0.80;;;16.50;62.90;;;;;;5052175;28;20177;-62
2022/08/08 01:22:36;;;;;;;0.82;0.82;;;16.50;63.10;;;;;;5052032;28;20203;-62
2022/08/08 01:25:52;;;;;;;0.93;0.93;;;16.40;63.00;;;;;;5051837;28;20210;-63
2022/08/08 01:28:54;;;;;;;1.00;0.90;;;16.40;63.40;;;;;;5052718;28;20252;-62
2022/08/08 01:31:48;;;;;;;0.82;0.82;;;16.40;63.80;;;;;;5052490;28;20177;-62
2022/08/08 01:34:35;;;;;;;1.23;0.98;;;16.30;63.90;;;;;;5052488;28;20177;-62
2022/08/08 01:37:38;;;;;;;1.05;1.05;;;16.30;64.40;;;;;;5051945;28;20177;-62
2022/08/08 01:40:29;;;;;;;1.00;1.00;;;16.30;64.30;;;;;;5052509;28;20609;-62
2022/08/08 01:43:08;;;;;;;0.77;0.77;;;16.30;63.90;;;;;;5052509;28;20185;-62
2022/08/08 01:45:47;;;;;;;2.17;0.80;;;16.30;63.70;;;;;;5031523;28;20226;-62
2022/08/08 01:48:43;;;;;;;0.70;0.70;;;16.30;63.50;;;;;;5046616;28;20184;-62
2022/08/08 01:51:23;;;;;;;1.60;1.50;;;16.30;63.00;;;;;;5051958;28;20216;-62
2022/08/08 01:54:18;;;;;;;1.17;0.98;;;16.30;63.10;;;;;;5050889;28;20185;-62
2022/08/08 01:56:54;;;;;;;3.20;1.02;;;16.30;63.00;;;;;;5052198;28;20264;-62
2022/08/08 01:59:25;;;;;;;1.20;1.10;;;16.30;63.50;;;;;;5052222;28;20177;-62
2022/08/08 02:02:02;;;;;;;2.25;1.00;;;16.30;63.20;;;;;;5052143;28;20196;-62
2022/08/08 02:04:36;;;;;;;0.88;0.80;;;16.30;62.90;;;;;;5051645;28;20181;-62
2022/08/08 02:07:07;;;;;;;0.80;0.80;;;16.30;63.70;;;;;;5051363;28;20657;-62
2022/08/08 02:09:51;;;;;;;0.88;0.88;;;16.30;63.00;;;;;;5051881;28;20595;-62
2022/08/08 02:12:51;;;;;;;0.82;0.82;;;16.30;62.80;;;;;;5032174;28;20189;-62
2022/08/08 02:15:30;;;;;;;0.98;0.98;;;16.30;62.90;;;;;;5023837;28;20193;-62
2022/08/08 02:17:59;;;;;;;0.90;0.90;;;16.30;62.50;;;;;;5038640;28;20178;-62
2022/08/08 02:22:30;;;;;;;2.50;1.00;;;16.30;62.40;;;;;;5050477;28;20177;-62
2022/08/08 02:23:41;;;;;;;0.90;0.90;;;16.30;62.40;;;;;;5046823;28;20238;-62
2022/08/08 02:26:15;;;;;;;2.30;1.05;;;16.30;62.30;;;;;;5051450;28;20220;-62
2022/08/08 02:28:51;;;;;;;2.05;0.98;;;16.30;62.20;;;;;;5051474;28;20636;-62
2022/08/08 02:31:35;;;;;;;1.45;1.10;;;16.40;61.90;;;;;;5051784;28;20215;-62
2022/08/08 02:34:13;;;;;;;3.83;0.95;;;16.30;61.80;;;;;;5051241;28;20177;-62
2022/08/08 02:36:44;;;;;;;0.95;0.90;;;16.30;61.90;;;;;;5050925;28;20181;-62
2022/08/08 02:39:42;;;;;;;0.75;0.75;;;16.40;62.30;;;;;;5049325;28;20209;-62
2022/08/08 02:42:44;;;;;;;0.90;0.90;;;16.40;61.60;;;;;;5046107;28;20174;-62
2022/08/08 02:46:02;;;;;;;0.70;0.70;;;16.40;61.40;;;;;;5049685;28;20219;-62
2022/08/08 02:48:43;;;;;;;1.25;0.77;;;16.40;61.10;;;;;;5050389;28;20192;-62
2022/08/08 02:51:50;;;;;;;2.22;0.90;;;16.40;61.00;;;;;;5038960;28;20196;-62
2022/08/08 02:54:40;;;;;;;0.70;0.70;;;16.30;61.40;;;;;;5050435;28;20194;-62
2022/08/08 02:57:50;;;;;;;0.70;0.70;;;16.30;61.80;;;;;;5051202;28;20192;-62
2022/08/08 03:00:22;;;;;;;1.30;0.80;;;16.30;62.00;;;;;;5043229;28;20262;-62
2022/08/08 03:03:21;;;;;;;1.00;0.90;;;16.20;63.00;;;;;;5050721;28;20180;-62
2022/08/08 03:06:12;;;;;;;1.08;1.08;;;16.20;62.40;;;;;;5050877;28;20209;-62
2022/08/08 03:09:15;;;;;;;4.45;1.58;;;16.20;63.00;;;;;;5050658;28;20666;-62
2022/08/08 03:11:49;;;;;;;1.65;1.08;;;16.20;63.30;;;;;;5035115;28;20667;-62
2022/08/08 03:14:14;;;;;;;0.90;0.90;;;16.10;63.60;;;;;;5051063;28;20188;-62
2022/08/08 03:17:14;;;;;;;2.55;1.67;;;16.10;63.80;;;;;;5050717;28;20188;-62
2022/08/08 03:20:05;;;;;;;2.38;1.40;;;16.00;64.00;;;;;;5042453;28;20193;-62
2022/08/08 03:22:33;;;;;;;1.48;1.20;;;16.00;64.30;;;;;;5050308;28;20780;-63
2022/08/08 03:25:04;;;;;;;3.35;1.10;;;15.90;64.60;;;;;;5050929;28;20567;-62
2022/08/08 03:27:52;;;;;;;2.20;1.00;;;15.90;64.70;;;;;;5050278;28;20641;-62
2022/08/08 03:30:21;;;;;;;0.90;0.90;;;15.80;65.00;;;;;;5050837;28;20647;-62
2022/08/08 03:35:37;;;;;;;1.70;0.95;;;15.70;65.70;;;;;;5050773;28;20682;-62
2022/08/08 03:38:03;;;;;;;0.70;0.70;;;15.60;66.00;;;;;;5050257;28;20189;-62
2022/08/08 03:40:28;;;;;;;0.70;0.70;;;15.60;66.20;;;;;;5049359;28;20198;-63
2022/08/08 03:42:54;;;;;;;0.75;0.73;;;15.60;66.50;;;;;;5050215;28;20188;-63
2022/08/08 03:45:23;;;;;;;0.98;0.75;;;15.50;66.60;;;;;;5050812;28;20220;-62
2022/08/08 03:47:58;;;;;;;1.85;0.90;;;15.50;66.80;;;;;;5050753;28;20189;-62
2022/08/08 03:50:25;;;;;;;2.05;0.95;;;15.40;67.20;;;;;;5050172;28;20174;-62
2022/08/08 03:52:52;;;;;;;1.05;1.05;;;15.30;67.60;;;;;;5050218;28;20804;-62
2022/08/08 03:55:19;;;;;;;1.98;0.80;;;15.30;67.90;;;;;;5050701;28;20201;-62
2022/08/08 03:57:47;;;;;;;0.85;0.77;;;15.30;68.10;;;;;;5050410;28;20192;-62
2022/08/08 04:00:15;;;;;;;0.70;0.70;;;15.30;68.20;;;;;;5051924;28;20174;-63
2022/08/08 04:02:40;;;;;;;0.98;0.90;;;15.20;68.20;;;;;;5053676;28;20331;-62
2022/08/08 04:05:06;;;;;;;3.60;0.90;;;15.20;68.60;;;;;;5055267;28;20675;-63
2022/08/08 04:07:37;;;;;;;1.05;0.95;;;15.20;68.40;;;;;;5052666;28;20272;-62
2022/08/08 04:10:05;;;;;;;1.63;0.75;;;15.10;68.20;;;;;;5053394;28;20182;-64
2022/08/08 04:12:30;;;;;;;0.90;0.90;;;15.10;68.40;;;;;;5054029;28;20185;-63
2022/08/08 04:14:56;;;;;;;2.03;0.90;;;15.10;68.50;;;;;;5053967;28;20174;-60
2022/08/08 04:17:21;;;;;;;1.40;1.00;;;15.00;68.70;;;;;;5053815;28;20204;-63
2022/08/08 04:19:47;;;;;;;0.80;0.80;;;15.00;68.70;;;;;;5053375;28;20734;-61
2022/08/08 04:22:13;;;;;;;0.80;0.80;;;15.00;68.90;;;;;;5053588;28;20173;-60
2022/08/08 04:24:38;;;;;;;2.47;0.90;;;15.00;69.20;;;;;;5053501;28;20221;-61
2022/08/08 04:27:05;;;;;;;1.10;0.90;;;15.00;68.40;;;;;;5053591;28;20184;-61
2022/08/08 04:29:31;;;;;;;0.77;0.77;;;15.00;68.20;;;;;;5053823;28;20207;-58
2022/08/08 04:31:57;;;;;;;2.15;0.90;;;15.10;67.80;;;;;;5053276;28;20648;-60
2022/08/08 04:34:22;;;;;;;1.73;1.10;;;15.10;67.00;;;;;;5056555;28;20174;-65
2022/08/08 04:36:48;;;;;;;1.08;1.00;;;15.20;67.80;;;;;;5053414;28;20225;-61
2022/08/08 04:39:13;;;;;;;1.17;0.95;;;15.20;68.00;;;;;;5051893;28;20248;-64
2022/08/08 04:41:39;;;;;;;1.88;1.00;;;15.30;67.90;;;;;;5053366;28;20189;-62
2022/08/08 04:44:05;;;;;;;0.85;0.80;;;15.30;67.80;;;;;;5052016;28;20185;-66
2022/08/08 04:46:31;;;;;;;1.20;1.10;;;15.40;66.80;;;;;;5053169;28;20220;-64
2022/08/08 04:48:57;;;;;;;1.40;1.10;;;15.40;66.40;;;;;;5052914;28;20177;-63
2022/08/08 04:51:23;;;;;;;0.85;0.85;;;15.50;67.30;;;;;;5052201;28;20170;-64
2022/08/08 04:53:48;;;;;;;0.75;0.75;;;15.50;66.40;;;;;;5052988;28;20180;-64
2022/08/08 04:56:16;;;;;;;1.27;1.02;;;15.60;65.70;;;;;;5053008;28;20173;-64
2022/08/08 04:58:42;;;;;;;1.17;0.98;;;15.70;65.30;;;;;;5053465;28;20656;-65
2022/08/08 05:01:07;;;;;;;2.08;1.00;;;15.80;65.00;;;;;;5053224;28;20184;-65
2022/08/08 05:03:33;;;;;;;0.80;0.80;;;16.00;64.70;;;;;;5053190;28;20181;-65
2022/08/08 05:05:58;;;;;;;1.10;1.00;;;16.40;64.00;;;;;;5053196;28;20213;-65
2022/08/08 05:08:25;;;;;;;2.08;1.00;;;16.80;63.10;;;;;;5053211;28;20166;-65
2022/08/08 05:10:51;;;;;;;3.58;0.80;;;17.20;61.60;;;;;;5051925;28;20239;-65
2022/08/08 05:13:17;;;;;;;0.93;0.75;;;17.70;60.70;;;;;;5052600;28;20174;-64
2022/08/08 05:15:42;;;;;;;3.22;1.02;;;18.10;59.70;;;;;;5053004;28;20178;-64
2022/08/08 05:18:08;;;;;;;1.30;0.85;;;18.60;59.20;;;;;;5053217;28;20173;-64
2022/08/08 05:20:33;;;;;;;0.82;0.70;;;19.10;58.10;;;;;;5053367;28;20511;-64
2022/08/08 05:22:59;;;;;;;0.82;0.73;;;19.50;57.50;;;;;;5052770;28;20567;-64
2022/08/08 05:25:25;;;;;;;2.58;0.90;;;19.80;56.80;;;;;;5052876;28;20235;-65
2022/08/08 05:27:52;;;;;;;0.90;0.65;;;20.20;56.00;;;;;;5052534;28;20182;-65
2022/08/08 05:30:18;;;;;;;1.77;0.98;;;20.50;55.50;;;;;;5052989;28;20189;-65
2022/08/08 05:32:43;;;;;;;1.05;0.65;;;20.80;55.00;;;;;;5052512;28;20585;-65
2022/08/08 05:35:11;;;;;;;3.22;1.00;;;21.20;54.70;;;;;;5052489;28;20180;-64
2022/08/08 05:37:40;;;;;;;0.90;0.80;;;21.60;54.00;;;;;;5052809;28;20247;-64
2022/08/08 05:40:06;;;;;;;0.80;0.80;;;21.90;53.10;;;;;;5052422;28;20547;-64
2022/08/08 05:42:40;;;;;;;1.10;0.80;;;22.30;52.90;;;;;;5051911;28;20185;-64
2022/08/08 05:45:07;;;;;;;2.15;0.90;;;22.80;52.30;;;;;;5052598;28;20193;-64
2022/08/08 05:47:35;;;;;;;1.88;0.88;;;23.20;51.50;;;;;;5052731;28;20170;-65
2022/08/08 05:50:04;;;;;;;1.17;0.90;;;23.50;51.00;;;;;;5052617;28;20179;-65
2022/08/08 05:52:30;;;;;;;1.20;0.93;;;23.80;50.50;;;;;;5053764;28;20272;-65
2022/08/08 05:54:56;;;;;;;2.92;0.93;;;24.10;50.00;;;;;;5072540;28;20326;-65
2022/08/08 05:57:25;;;;;;;0.80;0.75;;;24.30;49.60;;;;;;5072523;28;20260;-64
2022/08/08 05:59:51;;;;;;;1.90;0.90;;;24.70;49.30;;;;;;5072451;28;20180;-64
2022/08/08 06:03:10;;;;;;;1.33;0.82;;;24.90;49.10;;;;;;5056531;28;20166;-64
2022/08/08 06:05:14;;;;;;;2.05;0.80;;;25.30;48.50;;;;;;5050746;28;20547;-63
2022/08/08 06:07:41;;;;;;;0.75;0.75;;;25.90;47.50;;;;;;5051898;28;20186;-64
2022/08/08 06:10:10;;;;;;;1.55;1.00;;;26.40;47.00;;;;;;5052382;28;20178;-65
2022/08/08 06:12:36;;;;;;;1.08;0.70;;;26.70;46.40;;;;;;5052247;28;20182;-65
2022/08/08 06:15:04;;;;;;;0.60;0.60;;;27.10;45.30;;;;;;5052244;28;20180;-65
2022/08/08 06:17:34;;;;;;;2.67;0.98;;;27.50;44.30;;;;;;5052183;28;20182;-66
2022/08/08 06:20:04;;;;;;;0.70;0.70;;;27.80;43.60;;;;;;5052130;28;20187;-64
2022/08/08 06:22:30;;;;;;;0.95;0.70;;;28.10;43.10;;;;;;5051964;28;20737;-66
2022/08/08 06:24:56;;;;;;;1.38;0.68;;;28.40;43.00;;;;;;5051275;28;20205;-65
2022/08/08 06:27:32;;;;;;;1.58;1.10;;;28.70;42.10;;;;;;5051362;28;20184;-64
2022/08/08 06:30:04;;;;;;;4.25;0.75;;;29.10;41.70;;;;;;5051876;28;20223;-65
2022/08/08 06:32:30;;;;;;;1.13;0.70;;;29.50;41.10;;;;;;5051456;28;20184;-65
2022/08/08 06:35:01;;;;;;;2.13;1.45;;;29.80;40.70;;;;;;5051377;28;20187;-65
2022/08/08 06:37:31;;;;;;;1.10;1.00;;;29.90;40.20;;;;;;5051577;28;20583;-65
2022/08/08 06:40:01;;;;;;;0.85;0.60;;;30.10;40.10;;;;;;5050535;28;20185;-65
2022/08/08 06:42:31;;;;;;;0.60;0.60;;;30.50;39.40;;;;;;5051576;28;20223;-65
2022/08/08 06:44:57;;;;;;;2.60;0.60;;;30.90;39.30;;;;;;5051592;28;20224;-65
2022/08/08 06:47:23;;;;;;;1.63;0.85;;;31.30;38.50;;;;;;5051555;28;20174;-63
2022/08/08 06:49:48;;;;;;;0.93;0.63;;;31.50;37.90;;;;;;5051688;28;20180;-63
2022/08/08 06:52:15;;;;;;;1.40;0.70;;;31.80;37.70;;;;;;5051290;28;20181;-63
2022/08/08 06:54:42;;;;;;;2.08;0.93;;;32.30;37.50;;;;;;5051777;28;20212;-62
2022/08/08 06:57:09;;;;;;;0.90;0.82;;;32.50;37.10;;;;;;5051236;28;20194;-63
2022/08/08 06:59:36;;;;;;;1.13;0.88;;;32.70;37.00;;;;;;5051644;28;20169;-63
2022/08/08 07:02:03;;;;;;;0.80;0.80;;;32.90;36.60;;;;;;5051070;28;20192;-63
2022/08/08 07:04:52;;;;;;;1.13;0.73;;;33.10;36.20;;;;;;5051419;28;20231;-62
2022/08/08 07:07:30;;;;;;;1.45;1.00;;;33.20;36.40;;;;;;5051100;28;20706;-63
2022/08/08 07:10:04;;;;;;;0.85;0.80;;;33.40;36.00;;;;;;5046879;28;20230;-63
2022/08/08 07:12:41;;;;;;;0.80;0.80;;;33.50;35.90;;;;;;5031472;28;20583;-63
2022/08/08 07:15:09;;;;;;;3.30;0.77;;;33.70;35.80;;;;;;5051396;28;20180;-63
2022/08/08 07:17:58;;;;;;;1.88;1.10;;;33.70;35.30;;;;;;5071645;28;20173;-65
2022/08/08 07:20:28;;;;;;;1.17;0.57;;;33.70;35.50;;;;;;5071717;28;20586;-65
2022/08/08 07:23:19;;;;;;;0.75;0.75;;;33.50;35.60;;;;;;5071355;28;20251;-65
2022/08/08 07:25:48;;;;;;;0.60;0.60;;;33.40;35.90;;;;;;5071413;28;20222;-65
2022/08/08 07:28:15;;;;;;;0.93;0.80;;;33.60;36.00;;;;;;5055275;28;20223;-65
2022/08/08 07:30:42;;;;;;;1.02;0.80;;;33.70;35.90;;;;;;5052814;28;20189;-65
2022/08/08 07:33:10;;;;;;;1.48;0.95;;;33.90;35.60;;;;;;5051243;28;20173;-64
2022/08/08 07:35:37;;;;;;;1.08;0.90;;;34.00;35.50;;;;;;5053820;28;20168;-65
2022/08/08 07:38:03;;;;;;;1.77;0.88;;;34.20;35.60;;;;;;5055444;28;20223;-65
2022/08/08 07:40:30;;;;;;;0.75;0.75;;;34.40;35.30;;;;;;5055342;28;20220;-65
2022/08/08 07:42:55;;;;;;;1.92;0.93;;;34.60;35.20;;;;;;5055054;28;20177;-65
2022/08/08 07:45:22;;;;;;;2.40;0.98;;;34.80;35.30;;;;;;5054917;28;20226;-65
2022/08/08 07:47:47;;;;;;;1.67;1.08;;;35.00;34.40;;;;;;5055107;28;20181;-66
2022/08/08 07:50:14;;;;;;;1.88;0.80;;;35.10;34.80;;;;;;5054869;28;20191;-65
2022/08/08 07:52:45;;;;;;;0.80;0.70;;;35.30;34.70;;;;;;5054653;28;20238;-65
2022/08/08 07:55:25;;;;;;;1.85;1.08;;;35.50;34.40;;;;;;5054875;28;20175;-65
2022/08/08 07:58:15;;;;;;;1.67;0.77;;;35.80;34.70;;;;;;5033683;28;20177;-64
2022/08/08 08:00:50;;;;;;;4.85;2.72;;;36.10;34.60;;;;;;5039795;28;20251;-66
2022/08/08 08:03:32;;;;;;;4.07;1.80;;;36.30;33.50;;;;;;5052790;28;20180;-65
2022/08/08 08:06:01;;;;;;;2.83;1.25;;;36.30;33.40;;;;;;5054171;28;20212;-64
2022/08/08 08:08:36;;;;;;;1.80;0.90;;;36.10;34.00;;;;;;5054560;28;20255;-65
2022/08/08 08:11:03;;;;;;;1.58;0.85;;;36.00;34.70;;;;;;5054258;28;20180;-65
2022/08/08 08:13:35;;;;;;;5.65;1.20;;;36.10;34.20;;;;;;5054482;28;20191;-65
2022/08/08 08:16:04;;;;;;;1.63;0.90;;;36.10;34.90;;;;;;5054120;28;20177;-65
2022/08/08 08:18:36;;;;;;;2.10;1.10;;;35.90;34.30;;;;;;5054230;28;20172;-65
2022/08/08 08:21:02;;;;;;;1.38;0.85;;;35.90;34.10;;;;;;5054023;28;20561;-66
2022/08/08 08:23:28;;;;;;;2.47;1.02;;;36.00;34.70;;;;;;5053987;28;20216;-65
2022/08/08 08:25:53;;;;;;;1.02;0.98;;;36.20;34.90;;;;;;5053435;28;20737;-65
2022/08/08 08:28:21;;;;;;;1.85;1.10;;;36.40;34.40;;;;;;5054067;28;20222;-65
2022/08/08 08:30:47;;;;;;;1.05;0.90;;;36.20;34.40;;;;;;5053784;28;20226;-65
2022/08/08 08:33:13;;;;;;;2.30;0.95;;;36.10;35.20;;;;;;5054002;28;20271;-66
2022/08/08 08:35:38;;;;;;;0.88;0.88;;;36.30;34.30;;;;;;5053933;28;20265;-65
2022/08/08 08:38:04;;;;;;;1.77;1.15;;;36.20;34.70;;;;;;5054105;28;20531;-66
2022/08/08 08:40:30;;;;;;;3.10;1.02;;;36.10;35.00;;;;;;5053868;28;20181;-65
2022/08/08 08:42:57;;;;;;;1.58;1.10;;;36.00;35.00;;;;;;5053503;28;20640;-65
2022/08/08 08:45:23;;;;;;;4.80;1.02;;;35.50;34.80;;;;;;5053726;28;20221;-66
2022/08/08 08:47:52;;;;;;;4.05;1.73;;;35.30;35.80;;;;;;5052343;28;20189;-65
2022/08/08 08:50:18;;;;;;;1.30;1.20;;;35.30;36.00;;;;;;5053868;28;20211;-65
2022/08/08 08:52:44;;;;;;;1.00;0.90;;;35.30;36.80;;;;;;5053128;28;20181;-65
2022/08/08 08:55:14;;;;;;;0.95;0.85;;;35.40;35.90;;;;;;5053605;28;20172;-65
2022/08/08 08:57:42;;;;;;;1.85;1.30;;;35.50;36.40;;;;;;5053940;28;20181;-64
2022/08/08 09:00:09;;;;;;;1.10;1.10;;;35.50;36.40;;;;;;5053155;28;20649;-65
2022/08/08 09:02:37;;;;;;;3.63;1.05;;;35.50;36.40;;;;;;5053688;28;20177;-65
2022/08/08 09:05:06;;;;;;;1.85;1.20;;;35.50;36.00;;;;;;5053194;28;20205;-65
2022/08/08 09:07:33;;;;;;;1.90;1.50;;;35.50;37.10;;;;;;5053629;28;20267;-64
2022/08/08 09:10:00;;;;;;;1.65;1.20;;;35.50;37.50;;;;;;5053029;28;20185;-65
2022/08/08 09:12:27;;;;;;;1.85;1.30;;;35.70;36.90;;;;;;5053226;28;20222;-65
2022/08/08 09:14:55;;;;;;;1.35;1.23;;;35.80;36.30;;;;;;5053166;28;20184;-65
2022/08/08 09:17:23;;;;;;;2.53;1.35;;;35.50;36.40;;;;;;5053403;28;20254;-65
2022/08/08 09:19:58;;;;;;;1.40;1.30;;;35.30;36.90;;;;;;5052988;28;20177;-66
2022/08/08 09:22:25;;;;;;;1.95;1.20;;;35.30;37.20;;;;;;5053339;28;20168;-66
2022/08/08 09:24:52;;;;;;;1.67;1.35;;;35.30;37.90;;;;;;5052652;28;20228;-65
2022/08/08 09:27:19;;;;;;;3.70;1.20;;;35.40;37.30;;;;;;5051842;28;20267;-66
2022/08/08 09:29:47;;;;;;;4.32;1.20;;;35.50;37.30;;;;;;5052901;28;20177;-65
2022/08/08 09:32:17;;;;;;;4.03;1.52;;;35.60;36.80;;;;;;5051538;28;20304;-66
2022/08/08 09:34:49;;;;;;;1.15;1.10;;;35.60;37.00;;;;;;5052774;28;20602;-65
2022/08/08 09:37:17;;;;;;;3.80;1.25;;;35.50;37.10;;;;;;5052790;28;20212;-64
2022/08/08 09:40:06;;;;;;;3.95;1.40;;;35.50;36.80;;;;;;5051302;28;20181;-65
2022/08/08 09:42:38;;;;;;;1.48;1.38;;;35.50;37.50;;;;;;5052734;28;20234;-65
2022/08/08 09:45:30;;;;;;;1.75;1.30;;;35.40;38.00;;;;;;5052773;28;20247;-65
2022/08/08 09:48:00;;;;;;;3.60;1.40;;;35.00;37.50;;;;;;5052198;28;20663;-66
2022/08/08 09:50:26;;;;;;;2.95;1.35;;;35.00;37.80;;;;;;5041878;28;20188;-66
2022/08/08 09:52:53;;;;;;;1.67;1.45;;;35.10;37.50;;;;;;5052610;28;20242;-65
2022/08/08 09:55:20;;;;;;;2.35;1.30;;;35.10;37.00;;;;;;5052208;28;20184;-64
2022/08/08 09:57:48;;;;;;;4.78;1.65;;;35.10;37.00;;;;;;5051689;28;20259;-64
2022/08/08 10:00:18;;;;;;;5.07;1.38;;;35.20;37.50;;;;;;5052009;28;20183;-65
2022/08/08 10:02:50;;;;;;;2.03;1.13;;;35.30;36.80;;;;;;5052512;28;20177;-64
2022/08/08 10:05:18;;;;;;;2.60;1.40;;;35.20;37.20;;;;;;5051515;28;20197;-64
2022/08/08 10:07:49;;;;;;;1.40;1.30;;;35.10;37.30;;;;;;5052472;28;20268;-64
2022/08/08 10:10:24;;;;;;;2.08;1.20;;;34.80;37.50;;;;;;5051830;28;20533;-64
2022/08/08 10:12:49;;;;;;;2.55;1.00;;;34.80;37.80;;;;;;5052123;28;20191;-65
2022/08/08 10:15:15;;;;;;;1.60;1.10;;;35.00;36.70;;;;;;5052015;28;20184;-65
2022/08/08 10:17:49;;;;;;;2.13;1.50;;;34.80;36.30;;;;;;5052168;28;20245;-65
2022/08/08 10:20:15;;;;;;;1.98;1.20;;;34.70;36.10;;;;;;5051744;28;20280;-66
2022/08/08 10:23:03;;;;;;;1.30;1.17;;;34.50;36.30;;;;;;5051548;28;20244;-66
2022/08/08 10:25:30;;;;;;;1.35;1.08;;;34.50;36.60;;;;;;5052188;28;20234;-66
2022/08/08 10:27:56;;;;;;;1.52;1.30;;;34.40;36.90;;;;;;5051544;28;20187;-65
2022/08/08 10:30:23;;;;;;;3.85;1.20;;;34.30;36.60;;;;;;5051468;28;20181;-66
2022/08/08 10:32:54;;;;;;;1.33;1.10;;;34.50;36.00;;;;;;5051976;28;20192;-65
2022/08/08 10:35:26;;;;;;;0.95;0.95;;;34.60;35.90;;;;;;5051845;28;20624;-66
2022/08/08 10:37:52;;;;;;;1.00;1.00;;;34.40;35.20;;;;;;5051805;28;20220;-65
2022/08/08 10:40:18;;;;;;;1.08;1.05;;;34.20;35.60;;;;;;5050123;28;20201;-65
2022/08/08 10:42:46;;;;;;;1.52;1.30;;;34.10;35.70;;;;;;5051710;28;20177;-65
2022/08/08 10:45:12;;;;;;;1.00;1.00;;;34.00;35.80;;;;;;5051542;28;20220;-66
2022/08/08 10:47:38;;;;;;;2.13;1.08;;;34.00;35.20;;;;;;5051159;28;20204;-66
2022/08/08 10:50:06;;;;;;;1.10;0.98;;;33.90;36.40;;;;;;5049893;28;20501;-66
2022/08/08 10:52:34;;;;;;;2.17;1.30;;;33.90;34.30;;;;;;5051741;28;20169;-65
2022/08/08 10:55:20;;;;;;;1.63;1.45;;;34.00;34.70;;;;;;5051587;28;20192;-65
2022/08/08 10:57:47;;;;;;;3.33;1.77;;;33.80;35.00;;;;;;5051419;28;20260;-64
2022/08/08 11:00:24;;;;;;;2.95;1.70;;;33.80;35.30;;;;;;5051567;28;20192;-65
2022/08/08 11:02:50;;;;;;;1.38;1.00;;;33.90;34.60;;;;;;5051385;28;20223;-65
2022/08/08 11:05:17;;;;;;;4.88;2.80;;;33.80;34.20;;;;;;5051295;28;20215;-65
2022/08/08 11:07:49;;;;;;;1.67;1.23;;;33.70;34.10;;;;;;5051419;28;20268;-65
2022/08/08 11:10:17;;;;;;;1.65;0.80;;;33.50;34.30;;;;;;5053413;28;20178;-66
2022/08/08 11:12:49;;;;;;;0.90;0.90;;;33.30;35.00;;;;;;5055460;28;20248;-66
2022/08/08 11:15:20;;;;;;;0.95;0.90;;;33.40;35.10;;;;;;5054609;28;20174;-66
2022/08/08 11:17:46;;;;;;;1.17;1.02;;;33.50;34.50;;;;;;5055612;28;20938;-66
2022/08/08 11:20:16;;;;;;;0.85;0.85;;;33.20;34.00;;;;;;5055521;28;20181;-66
2022/08/08 11:22:42;;;;;;;1.17;0.65;;;33.20;34.50;;;;;;5056465;28;20640;-66
2022/08/08 11:25:12;;;;;;;1.35;1.00;;;33.30;34.90;;;;;;5055135;28;20205;-66
2022/08/08 11:27:39;;;;;;;1.10;1.10;;;33.30;34.80;;;;;;5055475;28;20177;-66
2022/08/08 11:30:07;;;;;;;1.52;0.88;;;33.10;35.20;;;;;;5055427;28;20252;-65
2022/08/08 11:32:38;;;;;;;4.43;2.47;;;33.00;34.30;;;;;;5055147;28;20178;-65
2022/08/08 11:35:10;;;;;;;1.48;1.10;;;33.20;34.80;;;;;;5055361;28;20196;-65
2022/08/08 11:37:37;;;;;;;1.20;1.10;;;33.30;34.30;;;;;;5054795;28;20247;-66
2022/08/08 11:40:05;;;;;;;1.27;1.17;;;33.50;34.60;;;;;;5054960;28;20181;-65
2022/08/08 11:42:32;;;;;;;2.78;1.27;;;33.60;34.00;;;;;;5054802;28;20227;-65
2022/08/08 11:44:58;;;;;;;1.50;1.40;;;33.70;33.90;;;;;;5054956;28;20205;-65
2022/08/08 11:47:25;;;;;;;3.35;1.33;;;33.50;33.70;;;;;;5054575;28;20203;-65
2022/08/08 11:50:07;;;;;;;1.05;1.00;;;33.10;34.50;;;;;;5055060;28;20174;-65
2022/08/08 11:52:35;;;;;;;1.40;1.23;;;32.80;34.80;;;;;;5054141;28;20656;-65
2022/08/08 11:55:00;;;;;;;2.08;1.10;;;33.00;35.70;;;;;;5054878;28;20173;-66
2022/08/08 11:57:28;;;;;;;0.80;0.80;;;33.30;35.40;;;;;;5054042;28;20185;-65
2022/08/08 12:00:00;;;;;;;2.40;1.20;;;33.50;34.30;;;;;;5054817;28;20650;-65
2022/08/08 12:02:29;;;;;;;1.00;1.00;;;33.50;34.60;;;;;;5054401;28;20181;-65
2022/08/08 12:05:08;;;;;;;1.13;1.13;;;33.40;34.70;;;;;;5054739;28;20169;-65
2022/08/08 12:07:52;;;;;;;1.85;1.08;;;33.10;34.40;;;;;;5054036;28;20181;-65
2022/08/08 12:10:23;;;;;;;1.90;1.05;;;33.00;34.80;;;;;;5054662;28;20579;-64
2022/08/08 12:12:59;;;;;;;1.00;1.00;;;32.90;35.30;;;;;;5054263;28;20264;-65
2022/08/08 12:15:30;;;;;;;1.63;1.10;;;32.90;35.50;;;;;;5054672;28;20685;-65
2022/08/08 12:17:56;;;;;;;2.22;1.27;;;32.90;35.20;;;;;;5054236;28;20228;-66
2022/08/08 12:20:22;;;;;;;1.15;0.80;;;33.00;34.90;;;;;;5054321;28;20204;-66
2022/08/08 12:22:49;;;;;;;3.70;1.58;;;33.00;34.80;;;;;;5053390;28;20200;-66
2022/08/08 12:25:21;;;;;;;3.42;2.00;;;33.10;34.90;;;;;;5054303;28;20209;-66
2022/08/08 12:27:46;;;;;;;1.15;1.05;;;33.20;35.00;;;;;;5053989;28;20189;-65
2022/08/08 12:30:12;;;;;;;0.88;0.88;;;33.00;35.30;;;;;;5054310;28;20204;-66
2022/08/08 12:32:44;;;;;;;1.45;1.27;;;33.00;35.70;;;;;;5053986;28;20525;-65
2022/08/08 12:35:21;;;;;;;2.45;1.05;;;33.10;35.60;;;;;;5054018;28;20636;-65
2022/08/08 12:38:03;;;;;;;2.25;1.00;;;33.30;35.10;;;;;;5053570;28;20191;-66
2022/08/08 12:40:42;;;;;;;7.68;2.85;;;33.50;35.10;;;;;;5053922;28;20185;-66
2022/08/08 12:43:09;;;;;;;0.95;0.95;;;33.40;35.10;;;;;;5052345;28;20177;-66
2022/08/08 12:45:41;;;;;;;1.30;1.20;;;33.10;34.70;;;;;;5054026;28;20223;-66
2022/08/08 12:48:19;;;;;;;1.38;0.98;;;32.90;34.80;;;;;;5053508;28;20694;-66
2022/08/08 12:50:48;;;;;;;2.30;1.20;;;32.80;34.70;;;;;;5053603;28;20189;-65
2022/08/08 12:53:27;;;;;;;1.38;1.10;;;32.80;34.70;;;;;;5053571;28;20294;-64
2022/08/08 12:56:09;;;;;;;7.70;4.10;;;32.90;34.80;;;;;;5053625;28;20216;-65
2022/08/08 12:58:51;;;;;;;1.40;1.30;;;32.80;34.70;;;;;;5053647;28;20640;-65
2022/08/08 13:01:17;;;;;;;1.55;1.20;;;32.80;34.70;;;;;;5052278;28;20585;-67
2022/08/08 13:03:48;;;;;;;1.90;1.05;;;32.50;34.30;;;;;;5053463;28;20185;-67
2022/08/08 13:06:16;;;;;;;1.20;1.10;;;32.40;34.40;;;;;;5053265;28;20636;-67
2022/08/08 13:08:50;;;;;;;2.40;1.20;;;32.30;34.40;;;;;;5053213;28;20178;-67
2022/08/08 13:11:34;;;;;;;2.88;1.40;;;32.40;34.50;;;;;;5053341;28;20207;-67
2022/08/08 13:14:02;;;;;;;3.47;1.10;;;32.50;34.90;;;;;;5053430;28;20231;-67
2022/08/08 13:16:30;;;;;;;5.55;1.17;;;32.70;35.00;;;;;;5052981;28;20177;-66
2022/08/08 13:18:57;;;;;;;3.45;1.67;;;33.00;34.70;;;;;;5052882;28;20181;-66
2022/08/08 13:21:23;;;;;;;8.90;4.90;;;33.30;34.30;;;;;;5052883;28;20205;-67
2022/08/08 13:23:48;;;;;;;6.80;4.10;;;33.50;33.80;;;;;;5052515;28;20615;-67